Time;durP1;ratioP1;P1;durP2;ratioP2;P2;SDS_P1;SDS_P2;PMS_P1;PMS_P2;Temp;Humidity;BMP_temperature;BMP_pressure;BME280_temperature;BME280_humidity;BME280_pressure;Samples;Min_cycle;Max_cycle;Signal;HPM_P1;HPM_P2
2021/01/11 00:00:18;;;;;;;0.80;0.80;;;1.20;99.90;;;1.30;100.00;-20717.19;4998802;28;20218;-65
2021/01/11 00:02:45;;;;;;;0.60;0.60;;;1.20;99.90;;;1.57;100.00;-20724.47;5009298;28;20187;-66
2021/01/11 00:05:13;;;;;;;0.70;0.60;;;1.20;99.90;;;1.63;100.00;-20726.13;5010661;28;20187;-65
2021/01/11 00:07:41;;;;;;;0.60;0.60;;;1.20;99.90;;;1.61;100.00;-20725.56;5014996;28;20183;-65
2021/01/11 00:10:10;;;;;;;0.60;0.60;;;1.20;99.90;;;1.56;100.00;-20724.19;5015108;28;20197;-65
2021/01/11 00:12:38;;;;;;;0.60;0.60;;;1.20;99.90;;;1.58;100.00;-20724.75;5014491;28;20543;-65
2021/01/11 00:15:08;;;;;;;0.70;0.50;;;1.20;99.90;;;1.71;100.00;-20728.22;5028512;28;20222;-67
2021/01/11 00:17:36;;;;;;;0.65;0.57;;;1.20;99.90;;;1.60;100.00;-20725.28;5015194;28;20191;-66
2021/01/11 00:20:06;;;;;;;0.75;0.75;;;1.20;99.90;;;1.50;100.00;-20722.50;5014048;28;20241;-65
2021/01/11 00:22:34;;;;;;;0.70;0.60;;;1.20;99.90;;;1.48;100.00;-20721.94;5008585;28;20221;-65
2021/01/11 00:25:02;;;;;;;0.60;0.60;;;1.20;99.90;;;1.72;100.00;-20728.50;5007133;28;20199;-65
2021/01/11 00:27:29;;;;;;;0.70;0.60;;;1.20;99.90;;;1.55;100.00;-20723.91;4995244;28;20219;-65
2021/01/11 00:29:56;;;;;;;0.70;0.60;;;1.20;99.90;;;1.58;100.00;-20724.88;5010894;28;20219;-66
2021/01/11 00:32:23;;;;;;;0.70;0.60;;;1.20;99.90;;;1.64;100.00;-20726.56;5013895;28;20194;-66
2021/01/11 00:34:51;;;;;;;0.60;0.50;;;1.30;99.90;;;1.65;100.00;-20726.69;5014807;28;20195;-65
2021/01/11 00:37:18;;;;;;;0.60;0.57;;;1.30;99.90;;;1.66;100.00;-20727.13;4999937;28;20587;-66
2021/01/11 00:39:45;;;;;;;0.60;0.60;;;1.30;99.90;;;1.65;100.00;-20726.69;4999572;28;20270;-66
2021/01/11 00:42:11;;;;;;;0.60;0.60;;;1.30;99.90;;;1.53;100.00;-20723.47;5008774;28;20195;-65
2021/01/11 00:44:38;;;;;;;0.60;0.60;;;1.30;99.90;;;1.70;100.00;-20728.09;5013610;28;20235;-66
2021/01/11 00:47:06;;;;;;;0.70;0.60;;;1.30;99.90;;;1.62;100.00;-20725.84;4996133;28;20199;-65
2021/01/11 00:49:33;;;;;;;0.70;0.60;;;1.30;99.90;;;1.69;100.00;-20727.81;5010743;28;20299;-65
2021/01/11 00:52:03;;;;;;;0.60;0.60;;;1.30;99.90;;;1.75;100.00;-20729.50;5006129;28;20575;-65
2021/01/11 00:54:30;;;;;;;0.70;0.60;;;1.30;99.90;;;1.74;100.00;-20729.22;5012911;28;20607;-66
2021/01/11 00:57:02;;;;;;;0.70;0.60;;;1.30;99.90;;;1.56;100.00;-20724.19;5009960;28;20350;-66
2021/01/11 00:59:54;;;;;;;0.70;0.60;;;1.20;99.90;;;1.57;100.00;-20724.59;5013669;28;20231;-65
2021/01/11 01:02:28;;;;;;;0.65;0.55;;;1.20;99.90;;;1.57;100.00;-20724.47;5028827;28;20194;-65
2021/01/11 01:04:55;;;;;;;0.68;0.60;;;1.20;99.90;;;1.51;100.00;-20722.78;5022787;28;20659;-65
2021/01/11 01:07:24;;;;;;;0.70;0.60;;;1.20;99.90;;;1.57;100.00;-20724.47;5009089;28;20187;-65
2021/01/11 01:09:51;;;;;;;0.70;0.60;;;1.20;99.90;;;1.49;100.00;-20722.22;5014283;28;20628;-66
2021/01/11 01:12:19;;;;;;;0.68;0.60;;;1.20;99.90;;;1.56;100.00;-20724.19;5002685;28;20245;-65
2021/01/11 01:14:46;;;;;;;0.60;0.50;;;1.20;99.90;;;1.70;100.00;-20728.09;5014071;28;20215;-66
2021/01/11 01:17:13;;;;;;;0.60;0.50;;;1.20;99.90;;;1.64;100.00;-20726.41;4996468;28;20246;-66
2021/01/11 01:19:40;;;;;;;0.80;0.63;;;1.20;99.90;;;1.52;100.00;-20723.06;4993544;28;20213;-67
2021/01/11 01:22:07;;;;;;;0.82;0.80;;;1.20;99.90;;;1.37;100.00;-20719.16;5013096;28;20282;-65
2021/01/11 01:24:34;;;;;;;0.70;0.60;;;1.20;99.90;;;1.52;100.00;-20723.19;5013061;28;20552;-65
2021/01/11 01:27:01;;;;;;;0.70;0.60;;;1.20;99.90;;;1.48;100.00;-20722.09;5012418;28;20229;-67
2021/01/11 01:29:28;;;;;;;0.60;0.50;;;1.10;99.90;;;1.57;100.00;-20724.47;5012300;28;20686;-65
2021/01/11 01:31:55;;;;;;;0.70;0.60;;;1.10;99.90;;;1.48;100.00;-20721.94;5011743;28;20191;-67
2021/01/11 01:34:22;;;;;;;0.70;0.60;;;1.10;99.90;;;1.44;100.00;-20721.09;5028156;28;20195;-65
2021/01/11 01:36:49;;;;;;;0.70;0.60;;;1.10;99.90;;;1.51;100.00;-20722.78;5012583;28;20226;-65
2021/01/11 01:39:16;;;;;;;2.08;1.98;;;1.10;99.90;;;1.45;100.00;-20721.38;5013510;28;20238;-65
2021/01/11 01:41:45;;;;;;;0.68;0.60;;;1.10;99.90;;;1.48;100.00;-20721.94;5000612;28;20218;-66
2021/01/11 01:44:12;;;;;;;0.70;0.57;;;1.10;99.90;;;1.42;100.00;-20720.53;5013320;28;20272;-67
2021/01/11 01:46:41;;;;;;;0.70;0.60;;;1.10;99.90;;;1.63;100.00;-20726.28;5010683;28;20301;-67
2021/01/11 01:49:09;;;;;;;0.68;0.60;;;1.10;99.90;;;1.58;100.00;-20724.75;5012934;28;20191;-66
2021/01/11 01:51:39;;;;;;;0.70;0.60;;;1.10;99.90;;;1.71;100.00;-20728.38;5005239;28;20659;-65
2021/01/11 01:54:06;;;;;;;0.70;0.60;;;1.10;99.90;;;1.58;100.00;-20724.75;5013217;28;20589;-65
2021/01/11 01:56:33;;;;;;;0.70;0.60;;;1.10;99.90;;;1.51;100.00;-20722.78;5011488;28;20211;-68
2021/01/11 01:59:03;;;;;;;0.70;0.60;;;1.20;99.90;;;1.61;100.00;-20725.56;5006760;28;20731;-65
2021/01/11 02:01:30;;;;;;;0.70;0.60;;;1.20;99.90;;;1.50;100.00;-20722.50;5007079;28;20198;-65
2021/01/11 02:03:58;;;;;;;0.70;0.50;;;1.20;99.90;;;1.52;100.00;-20723.06;5013065;28;20615;-65
2021/01/11 02:06:28;;;;;;;0.70;0.60;;;1.20;99.90;;;1.43;100.00;-20720.81;5000840;28;20191;-65
2021/01/11 02:09:05;;;;;;;0.70;0.63;;;1.10;99.90;;;1.43;100.00;-20720.69;4993462;28;20636;-65
2021/01/11 02:11:42;;;;;;;0.70;0.60;;;1.10;99.90;;;1.47;100.00;-20721.81;5002162;28;20569;-65
2021/01/11 02:14:28;;;;;;;0.70;0.70;;;1.10;99.90;;;1.47;100.00;-20721.81;5005389;28;20246;-66
2021/01/11 02:17:05;;;;;;;0.70;0.60;;;1.00;99.90;;;1.37;100.00;-20719.16;4994721;28;20274;-66
2021/01/11 02:20:16;;;;;;;0.70;0.60;;;1.00;99.90;;;1.49;100.00;-20722.22;4997391;28;20213;-66
2021/01/11 02:22:50;;;;;;;0.73;0.73;;;1.00;99.90;;;1.53;100.00;-20723.34;5008380;28;20238;-66
2021/01/11 02:25:40;;;;;;;0.65;0.60;;;1.10;99.90;;;1.59;100.00;-20725.03;4995822;28;20183;-65
2021/01/11 02:28:28;;;;;;;0.70;0.60;;;1.10;99.90;;;1.41;100.00;-20720.28;5009126;28;20688;-66
2021/01/11 02:30:59;;;;;;;0.70;0.60;;;1.10;99.90;;;1.71;100.00;-20728.22;4992345;28;20196;-67
2021/01/11 02:33:29;;;;;;;0.70;0.60;;;1.10;99.90;;;1.57;100.00;-20724.59;4992436;28;20229;-65
2021/01/11 02:36:05;;;;;;;0.70;0.60;;;1.10;99.90;;;1.62;100.00;-20725.84;5004462;28;20217;-66
2021/01/11 02:38:33;;;;;;;0.70;0.60;;;1.20;99.90;;;1.50;100.00;-20722.50;5014782;28;20257;-65
2021/01/11 02:41:01;;;;;;;0.60;0.55;;;1.10;99.90;;;1.49;100.00;-20722.38;5015095;28;20191;-65
2021/01/11 02:43:28;;;;;;;0.70;0.60;;;1.20;99.90;;;1.47;100.00;-20721.81;5015594;28;20268;-65
2021/01/11 02:45:56;;;;;;;0.70;0.60;;;1.10;99.90;;;1.43;100.00;-20720.81;5008204;28;20253;-65
2021/01/11 02:48:26;;;;;;;0.70;0.60;;;1.10;99.90;;;1.34;100.00;-20718.31;5016883;28;20214;-66
2021/01/11 02:51:19;;;;;;;0.70;0.60;;;1.00;99.90;;;1.25;100.00;-20715.78;5000763;28;20180;-65
2021/01/11 02:54:08;;;;;;;0.60;0.60;;;1.00;99.90;;;1.18;100.00;-20713.84;4998511;28;20211;-66
2021/01/11 02:56:45;;;;;;;0.70;0.60;;;0.90;99.90;;;1.24;100.00;-20715.50;5006494;28;20223;-65
2021/01/11 02:59:23;;;;;;;0.60;0.60;;;1.00;99.90;;;1.30;100.00;-20717.06;5001152;28;20286;-66
2021/01/11 03:01:56;;;;;;;0.70;0.60;;;1.00;99.90;;;1.33;100.00;-20718.03;5004764;28;20234;-65
2021/01/11 03:04:25;;;;;;;0.70;0.60;;;1.00;99.90;;;1.53;100.00;-20723.47;4996890;28;20652;-65
2021/01/11 03:06:59;;;;;;;0.70;0.60;;;1.10;99.90;;;1.57;100.00;-20724.47;5011213;28;20191;-65
2021/01/11 03:09:26;;;;;;;0.70;0.60;;;1.20;99.90;;;1.70;100.00;-20728.09;5014465;28;20210;-66
2021/01/11 03:11:54;;;;;;;0.70;0.60;;;1.30;99.90;;;1.63;100.00;-20726.13;5015044;28;20222;-65
2021/01/11 03:14:22;;;;;;;0.70;0.60;;;1.30;99.90;;;1.67;100.00;-20727.25;5014755;28;20293;-65
2021/01/11 03:16:50;;;;;;;0.70;0.60;;;1.30;99.90;;;1.69;100.00;-20727.97;5014273;28;20218;-65
2021/01/11 03:19:18;;;;;;;0.70;0.60;;;1.40;99.90;;;1.69;100.00;-20727.81;5015654;28;20194;-65
2021/01/11 03:21:45;;;;;;;0.70;0.60;;;1.30;99.90;;;1.74;100.00;-20729.22;5015845;28;20206;-65
2021/01/11 03:24:15;;;;;;;0.70;0.60;;;1.30;99.90;;;1.69;100.00;-20727.81;5014764;28;20588;-66
2021/01/11 03:26:42;;;;;;;0.70;0.60;;;1.20;99.90;;;1.58;100.00;-20724.75;5014526;28;20221;-66
2021/01/11 03:29:10;;;;;;;0.70;0.60;;;1.20;99.90;;;1.59;100.00;-20725.16;5015138;28;20230;-66
2021/01/11 03:31:38;;;;;;;0.70;0.60;;;1.20;99.90;;;1.57;100.00;-20724.59;5005618;28;20274;-65
2021/01/11 03:34:07;;;;;;;0.70;0.50;;;1.20;99.90;;;1.52;100.00;-20723.19;4998577;28;20615;-66
2021/01/11 03:36:34;;;;;;;0.70;0.60;;;1.20;99.90;;;1.56;100.00;-20724.31;5023306;28;20194;-66
2021/01/11 03:39:01;;;;;;;0.70;0.60;;;1.20;99.90;;;1.57;100.00;-20724.47;5015552;28;20679;-67
2021/01/11 03:41:28;;;;;;;0.70;0.60;;;1.20;99.90;;;1.56;100.00;-20724.31;5007829;28;20189;-66
2021/01/11 03:43:55;;;;;;;0.70;0.60;;;1.20;99.90;;;1.63;100.00;-20726.13;4999789;28;20218;-66
2021/01/11 03:46:22;;;;;;;0.70;0.70;;;1.20;99.90;;;1.51;100.00;-20722.78;5014568;28;20219;-66
2021/01/11 03:48:49;;;;;;;0.70;0.60;;;1.20;99.90;;;1.49;100.00;-20722.22;5015307;28;20191;-65
2021/01/11 03:51:17;;;;;;;0.70;0.60;;;1.30;99.90;;;1.53;100.00;-20723.34;4999481;28;20191;-66
2021/01/11 03:53:45;;;;;;;0.70;0.60;;;1.30;99.90;;;1.74;100.00;-20729.06;5015297;28;20612;-66
2021/01/11 03:56:12;;;;;;;0.70;0.60;;;1.30;99.90;;;1.73;100.00;-20728.78;5005245;28;20254;-66
2021/01/11 03:58:39;;;;;;;0.70;0.60;;;1.30;99.90;;;1.72;100.00;-20728.66;5013846;28;20221;-66
2021/01/11 04:01:06;;;;;;;0.70;0.60;;;1.30;99.90;;;1.73;100.00;-20728.78;5013779;28;20195;-65
2021/01/11 04:03:33;;;;;;;0.70;0.60;;;1.20;99.90;;;1.74;100.00;-20729.06;5015550;28;20172;-65
2021/01/11 04:06:00;;;;;;;0.70;0.60;;;1.20;99.90;;;1.61;100.00;-20725.72;5013557;28;20249;-65
2021/01/11 04:08:28;;;;;;;0.70;0.60;;;1.10;99.90;;;1.45;100.00;-20721.38;5015518;28;20199;-66
2021/01/11 04:10:56;;;;;;;0.70;0.60;;;1.00;99.90;;;1.49;100.00;-20722.38;5028834;28;20229;-66
2021/01/11 04:13:23;;;;;;;0.70;0.50;;;1.10;99.90;;;1.44;100.00;-20720.97;5014841;28;20229;-66
2021/01/11 04:15:49;;;;;;;0.70;0.60;;;1.00;99.90;;;1.36;100.00;-20718.88;5008940;28;20278;-65
2021/01/11 04:18:16;;;;;;;0.70;0.60;;;1.00;99.90;;;1.15;100.00;-20713.13;4995588;28;20668;-66
2021/01/11 04:20:43;;;;;;;0.70;0.60;;;0.90;99.90;;;1.23;100.00;-20715.22;4995754;28;20577;-66
2021/01/11 04:23:11;;;;;;;0.70;0.60;;;0.90;99.90;;;1.20;100.00;-20714.53;5002371;28;20199;-66
2021/01/11 04:25:39;;;;;;;0.70;0.60;;;0.90;99.90;;;1.26;100.00;-20715.94;5013588;28;20195;-66
2021/01/11 04:28:06;;;;;;;0.70;0.60;;;0.90;99.90;;;1.27;100.00;-20716.22;5013921;28;20191;-65
2021/01/11 04:30:33;;;;;;;0.60;0.50;;;0.90;99.90;;;1.23;100.00;-20715.09;5014642;28;20269;-65
2021/01/11 04:33:00;;;;;;;0.70;0.60;;;1.00;99.90;;;1.30;100.00;-20717.19;5014660;28;20187;-65
2021/01/11 04:35:29;;;;;;;0.70;0.60;;;1.00;99.90;;;1.37;100.00;-20719.16;5012896;28;20184;-66
2021/01/11 04:37:57;;;;;;;0.70;0.60;;;1.00;99.90;;;1.26;100.00;-20715.94;5014736;28;20665;-66
2021/01/11 04:40:25;;;;;;;0.70;0.60;;;1.00;99.90;;;1.18;100.00;-20713.84;5014282;28;20253;-66
2021/01/11 04:43:03;;;;;;;0.70;0.60;;;1.00;99.90;;;1.10;100.00;-20711.59;5011880;28;20198;-65
2021/01/11 04:45:30;;;;;;;0.70;0.60;;;0.90;99.90;;;1.11;100.00;-20712.03;5010013;28;20208;-66
2021/01/11 04:47:59;;;;;;;0.70;0.60;;;0.90;99.90;;;1.06;100.00;-20710.47;5012726;28;20229;-65
2021/01/11 04:50:29;;;;;;;0.70;0.70;;;0.80;99.90;;;0.96;100.00;-20707.81;5009575;28;20241;-68
2021/01/11 04:52:56;;;;;;;0.70;0.60;;;0.70;99.90;;;0.86;100.00;-20705.16;5013150;28;20281;-67
2021/01/11 04:55:23;;;;;;;0.70;0.52;;;0.70;99.90;;;0.88;100.00;-20705.59;5002848;28;20191;-70
2021/01/11 04:57:53;;;;;;;0.70;0.60;;;0.60;99.90;;;0.82;100.00;-20703.91;5010411;28;20187;-67
2021/01/11 05:00:24;;;;;;;0.70;0.60;;;0.60;99.90;;;0.68;100.00;-20700.13;5012623;28;20233;-66
2021/01/11 05:02:59;;;;;;;0.70;0.60;;;0.50;99.90;;;0.45;100.00;-20693.97;5011796;28;20246;-66
2021/01/11 05:05:27;;;;;;;1.65;1.55;;;0.30;99.90;;;0.24;100.00;-20688.25;5012235;28;20210;-66
2021/01/11 05:07:55;;;;;;;0.70;0.60;;;0.20;99.90;;;0.15;100.00;-20685.59;5012819;28;20221;-66
2021/01/11 05:10:25;;;;;;;0.70;0.60;;;0.10;99.90;;;0.00;100.00;-20681.53;5012602;28;20640;-66
2021/01/11 05:12:58;;;;;;;0.70;0.60;;;0.00;99.90;;;-0.16;100.00;-20677.19;5010898;28;20202;-66
2021/01/11 05:15:29;;;;;;;0.70;0.60;;;-0.20;99.90;;;-0.28;100.00;-20673.81;5009516;28;20456;-66
2021/01/11 05:17:56;;;;;;;0.70;0.60;;;-0.30;99.90;;;-0.49;100.00;-20668.09;5012394;28;20317;-69
2021/01/11 05:20:26;;;;;;;0.63;0.60;;;-0.30;99.90;;;-0.60;100.00;-20665.13;5011404;28;20674;-67
2021/01/11 05:22:56;;;;;;;0.70;0.60;;;-0.60;99.90;;;-0.61;100.00;-20664.72;5013499;28;20617;-66
2021/01/11 05:25:25;;;;;;;0.70;0.60;;;-0.60;99.90;;;-0.54;100.00;-20666.81;5008587;28;20278;-66
2021/01/11 05:28:10;;;;;;;0.70;0.63;;;-0.50;99.90;;;-0.67;100.00;-20663.19;5012775;28;20199;-66
2021/01/11 05:30:40;;;;;;;0.70;0.60;;;-0.60;99.90;;;-0.80;100.00;-20659.53;5011342;28;20225;-66
2021/01/11 05:33:16;;;;;;;0.70;0.70;;;-0.70;99.90;;;-0.79;100.00;-20659.81;5009704;28;20225;-66
2021/01/11 05:35:43;;;;;;;0.70;0.60;;;-0.80;99.90;;;-0.94;100.00;-20655.63;5011339;28;20214;-66
2021/01/11 05:38:18;;;;;;;0.70;0.50;;;-0.80;99.90;;;-1.01;100.00;-20653.94;5020808;28;20223;-66
2021/01/11 05:40:46;;;;;;;0.70;0.60;;;-0.90;99.90;;;-0.99;100.00;-20654.50;5012601;28;20174;-66
2021/01/11 05:43:19;;;;;;;0.70;0.60;;;-0.90;99.90;;;-0.89;100.00;-20657.00;5012494;28;20222;-66
2021/01/11 05:45:47;;;;;;;0.70;0.60;;;-0.90;99.90;;;-0.94;100.00;-20655.63;5027681;28;20409;-66
2021/01/11 05:48:15;;;;;;;0.70;0.70;;;-0.90;99.90;;;-0.95;100.00;-20655.34;5008166;28;20201;-66
2021/01/11 05:50:44;;;;;;;0.70;0.70;;;-0.80;99.90;;;-0.88;100.00;-20657.44;5005292;28;20262;-66
2021/01/11 05:53:17;;;;;;;0.60;0.50;;;-0.80;99.90;;;-0.90;100.00;-20656.75;4999842;28;20219;-67
2021/01/11 05:55:45;;;;;;;0.70;0.70;;;-0.80;99.90;;;-0.78;100.00;-20660.09;4993287;28;20195;-66
2021/01/11 05:58:12;;;;;;;0.70;0.60;;;-0.80;99.90;;;-0.84;100.00;-20658.41;5004241;28;20246;-66
2021/01/11 06:00:41;;;;;;;0.65;0.60;;;-0.80;99.90;;;-0.86;100.00;-20658.00;5013055;28;20175;-66
2021/01/11 06:03:11;;;;;;;0.65;0.55;;;-0.80;99.90;;;-0.79;100.00;-20659.97;5002607;28;20191;-66
2021/01/11 06:05:38;;;;;;;0.65;0.57;;;-0.70;99.90;;;-0.87;100.00;-20657.56;4994215;28;20191;-66
2021/01/11 06:08:08;;;;;;;0.70;0.60;;;-0.80;99.90;;;-0.93;100.00;-20655.91;4993918;28;20192;-66
2021/01/11 06:10:36;;;;;;;0.60;0.50;;;-0.90;99.90;;;-0.86;100.00;-20657.84;4993332;28;20191;-66
2021/01/11 06:13:08;;;;;;;0.70;0.70;;;-0.80;99.90;;;-0.68;100.00;-20662.91;4994285;28;20207;-66
2021/01/11 06:15:36;;;;;;;0.60;0.50;;;-0.70;99.90;;;-0.49;100.00;-20668.09;4994043;28;20258;-66
2021/01/11 06:18:09;;;;;;;0.68;0.60;;;-0.60;99.90;;;-0.33;100.00;-20672.41;5000872;28;20183;-66
2021/01/11 06:20:42;;;;;;;0.60;0.50;;;-0.50;99.90;;;-0.17;100.00;-20676.91;5011496;28;20233;-66
2021/01/11 06:23:11;;;;;;;0.60;0.60;;;-0.30;99.90;;;-0.05;100.00;-20680.13;5013028;28;20215;-66
2021/01/11 06:25:43;;;;;;;0.60;0.60;;;-0.30;99.90;;;-0.03;100.00;-20680.81;5013094;28;20175;-66
2021/01/11 06:28:12;;;;;;;0.60;0.50;;;-0.20;99.90;;;-0.05;100.00;-20680.13;5002408;28;20238;-66
2021/01/11 06:30:48;;;;;;;0.60;0.60;;;-0.20;99.90;;;-0.12;100.00;-20678.31;5009360;28;20552;-66
2021/01/11 06:33:25;;;;;;;0.60;0.60;;;-0.20;99.90;;;-0.03;100.00;-20680.81;4993308;28;20216;-66
2021/01/11 06:35:54;;;;;;;0.70;0.70;;;-0.10;99.90;;;-0.04;100.00;-20680.53;5012714;28;20210;-66
2021/01/11 06:38:29;;;;;;;0.60;0.50;;;-0.10;99.90;;;-0.04;100.00;-20680.53;5013133;28;20249;-67
2021/01/11 06:41:12;;;;;;;0.60;0.60;;;-0.10;99.90;;;-0.08;100.00;-20679.41;4992237;28;20179;-66
2021/01/11 06:43:45;;;;;;;1.23;1.23;;;-0.10;99.90;;;-0.10;100.00;-20678.72;4995835;28;20277;-67
2021/01/11 06:46:28;;;;;;;0.60;0.50;;;-0.10;99.90;;;-0.11;100.00;-20678.59;5011406;28;20257;-66
2021/01/11 06:49:02;;;;;;;0.60;0.60;;;-0.20;99.90;;;-0.14;100.00;-20677.75;5012810;28;20203;-67
2021/01/11 06:51:31;;;;;;;0.60;0.50;;;-0.20;99.90;;;-0.20;100.00;-20676.06;5012525;28;20205;-67
2021/01/11 06:54:08;;;;;;;0.60;0.60;;;-0.20;99.90;;;-0.21;100.00;-20675.78;5010751;28;20663;-66
2021/01/11 06:56:37;;;;;;;0.90;0.90;;;-0.20;99.90;;;-0.20;100.00;-20676.06;4993090;28;20539;-66
2021/01/11 06:59:06;;;;;;;0.60;0.60;;;-0.20;99.90;;;-0.30;100.00;-20673.41;4994204;28;20207;-67
2021/01/11 07:01:37;;;;;;;0.60;0.60;;;-0.20;99.90;;;-0.39;100.00;-20670.75;5012965;28;20601;-67
2021/01/11 07:04:07;;;;;;;0.60;0.50;;;-0.30;99.90;;;-0.41;100.00;-20670.19;5012584;28;20272;-68
2021/01/11 07:06:39;;;;;;;0.70;0.60;;;-0.40;99.90;;;-0.45;100.00;-20669.06;5011234;28;20186;-68
2021/01/11 07:09:09;;;;;;;0.70;0.60;;;-0.40;99.90;;;-0.51;100.00;-20667.53;5010816;28;20673;-65
2021/01/11 07:11:38;;;;;;;0.60;0.60;;;-0.40;99.90;;;-0.55;100.00;-20666.53;4990707;28;20184;-65
2021/01/11 07:14:07;;;;;;;0.60;0.60;;;-0.50;99.90;;;-0.56;100.00;-20666.13;4995616;28;20211;-66
2021/01/11 07:16:46;;;;;;;0.65;0.60;;;-0.50;99.90;;;-0.52;100.00;-20667.38;5011052;28;20181;-66
2021/01/11 07:19:19;;;;;;;0.60;0.60;;;-0.60;99.90;;;-0.57;100.00;-20665.84;5010810;28;20261;-67
2021/01/11 07:21:48;;;;;;;0.60;0.60;;;-0.60;99.90;;;-0.66;100.00;-20663.47;5010457;28;20249;-66
2021/01/11 07:24:16;;;;;;;0.60;0.50;;;-0.60;99.90;;;-0.62;100.00;-20664.59;5015067;28;20183;-68
2021/01/11 07:26:43;;;;;;;0.60;0.60;;;-0.70;99.90;;;-0.53;100.00;-20666.97;5014186;28;20207;-67
2021/01/11 07:29:13;;;;;;;0.60;0.50;;;-0.50;99.90;;;-0.36;100.00;-20671.59;4996029;28;20210;-67
2021/01/11 07:31:43;;;;;;;0.60;0.60;;;-0.40;99.90;;;-0.31;100.00;-20673.13;4997485;28;20187;-67
2021/01/11 07:34:12;;;;;;;0.60;0.50;;;-0.30;99.90;;;-0.29;100.00;-20673.53;4996960;28;20190;-67
2021/01/11 07:36:42;;;;;;;0.60;0.60;;;-0.40;99.90;;;-0.14;100.00;-20677.75;4997320;28;20689;-67
2021/01/11 07:39:14;;;;;;;0.60;0.60;;;-0.20;99.90;;;-0.03;100.00;-20680.81;4996098;28;20664;-67
2021/01/11 07:41:43;;;;;;;0.80;0.80;;;-0.20;99.90;;;0.13;100.00;-20685.03;5009878;28;20659;-67
2021/01/11 07:44:20;;;;;;;0.60;0.60;;;-0.10;99.90;;;0.28;100.00;-20689.22;5014223;28;20282;-67
2021/01/11 07:46:56;;;;;;;0.60;0.60;;;0.00;99.90;;;0.38;100.00;-20692.03;5014774;28;20195;-67
2021/01/11 07:49:25;;;;;;;0.60;0.60;;;0.10;99.90;;;0.37;100.00;-20691.75;5013718;28;20636;-67
2021/01/11 07:51:54;;;;;;;0.60;0.50;;;0.20;99.90;;;0.50;100.00;-20695.09;5010308;28;20668;-67
2021/01/11 07:54:22;;;;;;;0.60;0.50;;;0.20;99.90;;;0.60;100.00;-20697.91;5015529;28;20218;-67
2021/01/11 07:56:50;;;;;;;0.60;0.60;;;0.30;99.90;;;0.59;100.00;-20697.63;5031357;28;20706;-67
2021/01/11 07:59:18;;;;;;;0.60;0.60;;;0.30;99.90;;;0.59;100.00;-20697.63;5014002;28;20269;-67
2021/01/11 08:01:48;;;;;;;0.60;0.60;;;0.20;99.90;;;0.66;100.00;-20699.72;5004105;28;20195;-67
2021/01/11 08:04:16;;;;;;;0.60;0.60;;;0.30;99.90;;;0.70;100.00;-20700.84;4997125;28;20202;-67
2021/01/11 08:06:53;;;;;;;0.70;0.60;;;0.30;99.90;;;0.67;100.00;-20699.84;5009369;28;20188;-68
2021/01/11 08:09:25;;;;;;;0.60;0.60;;;0.30;99.90;;;0.71;100.00;-20700.97;5015603;28;20167;-66
2021/01/11 08:12:09;;;;;;;0.60;0.60;;;0.30;99.90;;;0.77;100.00;-20702.66;5006964;28;20218;-65
2021/01/11 08:14:36;;;;;;;0.65;0.60;;;0.40;99.90;;;1.00;100.00;-20708.81;4995445;28;20336;-65
2021/01/11 08:17:06;;;;;;;0.60;0.60;;;0.50;99.90;;;1.07;100.00;-20710.91;4996923;28;20575;-66
2021/01/11 08:19:34;;;;;;;0.68;0.60;;;0.60;99.90;;;0.96;100.00;-20707.81;4996658;28;20679;-66
2021/01/11 08:22:03;;;;;;;0.70;0.60;;;0.60;99.90;;;1.13;100.00;-20712.44;5004418;28;20245;-66
2021/01/11 08:24:30;;;;;;;0.60;0.60;;;0.70;99.90;;;1.31;100.00;-20717.47;5014922;28;20195;-65
2021/01/11 08:27:07;;;;;;;0.60;0.57;;;0.80;99.90;;;1.32;100.00;-20717.59;5015161;28;20202;-65
2021/01/11 08:29:36;;;;;;;0.70;0.60;;;0.80;99.90;;;1.11;100.00;-20711.88;5014639;28;20202;-66
2021/01/11 08:32:08;;;;;;;0.70;0.60;;;0.90;99.90;;;1.31;100.00;-20717.47;5011494;28;20594;-65
2021/01/11 08:34:35;;;;;;;0.70;0.60;;;1.00;99.90;;;1.44;100.00;-20720.97;5014867;28;20175;-66
2021/01/11 08:37:32;;;;;;;0.70;0.60;;;1.20;99.90;;;1.51;100.00;-20722.78;5014489;28;20612;-66
2021/01/11 08:40:03;;;;;;;0.93;0.93;;;1.30;99.90;;;1.56;100.00;-20724.31;5030039;28;20215;-66
2021/01/11 08:42:31;;;;;;;0.65;0.60;;;1.30;99.90;;;1.69;100.00;-20727.97;5007959;28;20223;-66
2021/01/11 08:45:27;;;;;;;0.68;0.60;;;1.40;99.90;;;1.87;100.00;-20732.69;5010117;28;20280;-66
2021/01/11 08:48:00;;;;;;;0.70;0.60;;;1.40;99.90;;;1.68;100.00;-20727.66;4995093;28;20365;-66
2021/01/11 08:50:27;;;;;;;0.70;0.60;;;1.50;99.90;;;1.94;100.00;-20734.78;4998941;28;20175;-66
2021/01/11 08:52:56;;;;;;;0.70;0.60;;;1.50;99.90;;;1.90;100.00;-20733.69;5013245;28;20206;-66
2021/01/11 08:55:23;;;;;;;0.70;0.60;;;1.50;99.90;;;1.92;100.00;-20734.25;5013280;28;20734;-65
2021/01/11 08:57:59;;;;;;;0.70;0.60;;;1.50;99.90;;;1.99;100.00;-20735.91;5013568;28;20183;-66
2021/01/11 09:00:27;;;;;;;0.70;0.60;;;1.50;99.90;;;1.86;100.00;-20732.56;5000699;28;20230;-66
2021/01/11 09:02:54;;;;;;;0.70;0.60;;;1.50;99.90;;;1.75;100.00;-20729.34;4994700;28;20219;-66
2021/01/11 09:05:23;;;;;;;0.70;0.60;;;1.50;99.90;;;1.76;100.00;-20729.63;4994720;28;20204;-67
2021/01/11 09:07:51;;;;;;;0.70;0.60;;;1.50;99.90;;;1.96;100.00;-20735.22;5014272;28;20655;-67
2021/01/11 09:10:33;;;;;;;0.70;0.50;;;1.50;99.90;;;2.10;100.00;-20738.97;5014661;28;20206;-68
2021/01/11 09:13:18;;;;;;;0.70;0.60;;;1.50;99.90;;;2.09;100.00;-20738.72;5014530;28;20179;-66
2021/01/11 09:15:45;;;;;;;0.70;0.60;;;1.50;99.90;;;2.03;100.00;-20737.03;5013034;28;20639;-66
2021/01/11 09:18:14;;;;;;;0.70;0.60;;;1.40;99.90;;;2.01;100.00;-20736.47;4995081;28;20194;-67
2021/01/11 09:20:43;;;;;;;0.70;0.60;;;1.40;99.90;;;2.01;100.00;-20736.47;4998040;28;20263;-67
2021/01/11 09:23:12;;;;;;;0.70;0.60;;;1.40;99.90;;;1.89;100.00;-20733.25;5011008;28;20198;-67
2021/01/11 09:25:40;;;;;;;0.75;0.75;;;1.40;99.90;;;2.17;100.00;-20740.94;5012529;28;20195;-67
2021/01/11 09:28:09;;;;;;;0.70;0.60;;;1.40;99.90;;;2.08;100.00;-20738.56;5013772;28;20191;-67
2021/01/11 09:30:36;;;;;;;0.70;0.60;;;1.40;99.90;;;2.08;100.00;-20738.44;5012040;28;20198;-67
2021/01/11 09:33:05;;;;;;;1.75;1.65;;;1.40;99.90;;;2.12;100.00;-20739.69;4994358;28;20176;-67
2021/01/11 09:35:32;;;;;;;0.70;0.60;;;1.40;99.90;;;2.21;100.00;-20741.91;4995295;28;20585;-67
2021/01/11 09:37:59;;;;;;;0.70;0.60;;;1.40;99.90;;;1.96;100.00;-20735.06;5013731;28;20179;-67
2021/01/11 09:40:26;;;;;;;0.70;0.60;;;1.40;99.90;;;2.14;100.00;-20740.25;5008294;28;20215;-67
2021/01/11 09:42:54;;;;;;;0.70;0.60;;;1.50;99.90;;;2.30;100.00;-20744.56;5011456;28;20651;-68
2021/01/11 09:45:21;;;;;;;0.63;0.50;;;1.50;99.90;;;2.45;100.00;-20748.63;5006526;28;20207;-67
2021/01/11 09:47:48;;;;;;;0.68;0.60;;;1.60;99.90;;;2.50;100.00;-20750.00;4995774;28;20200;-67
2021/01/11 09:50:16;;;;;;;0.70;0.60;;;1.70;99.90;;;2.56;100.00;-20751.56;4994183;28;20717;-67
2021/01/11 09:52:43;;;;;;;0.70;0.60;;;1.70;99.90;;;2.70;100.00;-20755.47;5009989;28;20200;-67
2021/01/11 09:55:13;;;;;;;0.70;0.60;;;1.80;99.90;;;2.70;100.00;-20755.47;5013803;28;20180;-67
2021/01/11 09:57:40;;;;;;;0.63;0.50;;;1.80;99.90;;;2.71;100.00;-20755.59;4996404;28;20196;-67
2021/01/11 10:00:12;;;;;;;0.70;0.60;;;1.80;99.90;;;2.57;100.00;-20751.97;4993490;28;20222;-67
2021/01/11 10:02:45;;;;;;;0.70;0.60;;;1.90;99.90;;;2.53;100.00;-20750.84;4995029;28;20195;-67
2021/01/11 10:05:12;;;;;;;0.70;0.60;;;1.90;99.90;;;2.54;100.00;-20751.00;4994405;28;20177;-67
2021/01/11 10:07:39;;;;;;;0.70;0.60;;;1.80;99.90;;;2.59;100.00;-20752.41;5010278;28;20206;-67
2021/01/11 10:10:08;;;;;;;0.70;0.60;;;1.80;99.90;;;2.51;100.00;-20750.16;5002866;28;20183;-66
2021/01/11 10:12:35;;;;;;;0.70;0.60;;;1.90;99.90;;;2.48;100.00;-20749.47;5003114;28;20237;-67
2021/01/11 10:15:02;;;;;;;0.70;0.63;;;1.90;99.90;;;2.47;100.00;-20749.03;5004282;28;20215;-66
2021/01/11 10:17:30;;;;;;;0.70;0.60;;;1.90;99.90;;;2.70;100.00;-20755.47;4993956;28;20622;-66
2021/01/11 10:19:57;;;;;;;0.70;0.60;;;1.90;99.90;;;2.80;100.00;-20758.25;4998004;28;20540;-66
2021/01/11 10:22:24;;;;;;;0.70;0.60;;;1.90;99.90;;;2.71;100.00;-20755.59;5013262;28;20208;-66
2021/01/11 10:24:51;;;;;;;0.70;0.60;;;2.00;99.90;;;2.56;100.00;-20751.56;5013618;28;20205;-67
2021/01/11 10:27:18;;;;;;;0.70;0.60;;;2.00;99.90;;;2.59;100.00;-20752.41;5011652;28;20195;-66